sensor_id;sensor_type;location;lat;lon;timestamp;temperature;humidity
38464;DHT22;24243;51.956;5.902;2024-01-16T00:00:03;18.70;54.10
38464;DHT22;24243;51.956;5.902;2024-01-16T00:02:47;18.70;54.10
38464;DHT22;24243;51.956;5.902;2024-01-16T00:05:32;18.70;54.10
38464;DHT22;24243;51.956;5.902;2024-01-16T00:08:16;18.70;54.10
38464;DHT22;24243;51.956;5.902;2024-01-16T00:11:01;18.70;54.10
38464;DHT22;24243;51.956;5.902;2024-01-16T00:13:45;18.70;54.10
38464;DHT22;24243;51.956;5.902;2024-01-16T00:16:30;18.70;54.10
38464;DHT22;24243;51.956;5.902;2024-01-16T00:19:14;18.70;54.00
38464;DHT22;24243;51.956;5.902;2024-01-16T00:21:58;18.60;54.00
38464;DHT22;24243;51.956;5.902;2024-01-16T00:24:44;18.70;54.00
38464;DHT22;24243;51.956;5.902;2024-01-16T00:27:28;18.60;54.00
38464;DHT22;24243;51.956;5.902;2024-01-16T00:30:12;18.60;54.00
38464;DHT22;24243;51.956;5.902;2024-01-16T00:32:56;18.60;54.00
38464;DHT22;24243;51.956;5.902;2024-01-16T00:35:41;18.60;54.00
38464;DHT22;24243;51.956;5.902;2024-01-16T00:38:25;18.60;54.00
38464;DHT22;24243;51.956;5.902;2024-01-16T00:41:09;18.60;53.90
38464;DHT22;24243;51.956;5.902;2024-01-16T00:43:53;18.60;53.90
38464;DHT22;24243;51.956;5.902;2024-01-16T00:46:38;18.60;53.90
38464;DHT22;24243;51.956;5.902;2024-01-16T00:49:22;18.50;53.80
38464;DHT22;24243;51.956;5.902;2024-01-16T00:52:06;18.50;53.80
38464;DHT22;24243;51.956;5.902;2024-01-16T00:54:50;18.50;53.80
38464;DHT22;24243;51.956;5.902;2024-01-16T00:57:35;18.50;53.80
38464;DHT22;24243;51.956;5.902;2024-01-16T01:00:19;18.50;53.80
38464;DHT22;24243;51.956;5.902;2024-01-16T01:03:03;18.50;53.80
38464;DHT22;24243;51.956;5.902;2024-01-16T01:05:48;18.50;53.80
38464;DHT22;24243;51.956;5.902;2024-01-16T01:08:32;18.50;53.80
38464;DHT22;24243;51.956;5.902;2024-01-16T01:11:16;18.50;53.70
38464;DHT22;24243;51.956;5.902;2024-01-16T01:14:00;18.50;53.80
38464;DHT22;24243;51.956;5.902;2024-01-16T01:16:45;18.40;53.70
38464;DHT22;24243;51.956;5.902;2024-01-16T01:19:29;18.40;53.70
38464;DHT22;24243;51.956;5.902;2024-01-16T01:22:13;18.40;53.70
38464;DHT22;24243;51.956;5.902;2024-01-16T01:24:57;18.40;53.70
38464;DHT22;24243;51.956;5.902;2024-01-16T01:27:42;18.40;53.70
38464;DHT22;24243;51.956;5.902;2024-01-16T01:30:26;18.40;53.70
38464;DHT22;24243;51.956;5.902;2024-01-16T01:33:10;18.40;53.70
38464;DHT22;24243;51.956;5.902;2024-01-16T01:35:55;18.40;53.70
38464;DHT22;24243;51.956;5.902;2024-01-16T01:38:39;18.40;53.70
38464;DHT22;24243;51.956;5.902;2024-01-16T01:41:24;18.40;53.70
38464;DHT22;24243;51.956;5.902;2024-01-16T01:44:08;18.30;53.60
38464;DHT22;24243;51.956;5.902;2024-01-16T01:46:59;18.30;53.60
38464;DHT22;24243;51.956;5.902;2024-01-16T01:49:43;18.40;53.70
38464;DHT22;24243;51.956;5.902;2024-01-16T01:52:27;18.30;53.60
38464;DHT22;24243;51.956;5.902;2024-01-16T01:55:12;18.30;53.60
38464;DHT22;24243;51.956;5.902;2024-01-16T01:57:57;18.30;53.60
38464;DHT22;24243;51.956;5.902;2024-01-16T02:00:41;18.30;53.60
38464;DHT22;24243;51.956;5.902;2024-01-16T02:03:26;18.30;53.60
38464;DHT22;24243;51.956;5.902;2024-01-16T02:06:11;18.30;53.60
38464;DHT22;24243;51.956;5.902;2024-01-16T02:08:56;18.30;53.60
38464;DHT22;24243;51.956;5.902;2024-01-16T02:11:40;18.30;53.60
38464;DHT22;24243;51.956;5.902;2024-01-16T02:14:25;18.20;53.50
38464;DHT22;24243;51.956;5.902;2024-01-16T02:17:09;18.30;53.50
38464;DHT22;24243;51.956;5.902;2024-01-16T02:19:53;18.20;53.50
38464;DHT22;24243;51.956;5.902;2024-01-16T02:22:37;18.20;53.50
38464;DHT22;24243;51.956;5.902;2024-01-16T02:25:22;18.20;53.50
38464;DHT22;24243;51.956;5.902;2024-01-16T02:28:06;18.20;53.50
38464;DHT22;24243;51.956;5.902;2024-01-16T02:30:50;18.20;53.50
38464;DHT22;24243;51.956;5.902;2024-01-16T02:33:35;18.20;53.50
38464;DHT22;24243;51.956;5.902;2024-01-16T02:36:19;18.20;53.50
38464;DHT22;24243;51.956;5.902;2024-01-16T02:39:03;18.20;53.50
38464;DHT22;24243;51.956;5.902;2024-01-16T02:41:47;18.20;53.50
38464;DHT22;24243;51.956;5.902;2024-01-16T02:44:31;18.20;53.50
38464;DHT22;24243;51.956;5.902;2024-01-16T02:47:16;18.20;53.50
38464;DHT22;24243;51.956;5.902;2024-01-16T02:50:01;18.10;53.40
38464;DHT22;24243;51.956;5.902;2024-01-16T02:52:46;18.20;53.50
38464;DHT22;24243;51.956;5.902;2024-01-16T02:55:30;18.10;53.40
38464;DHT22;24243;51.956;5.902;2024-01-16T02:58:14;18.10;53.40
38464;DHT22;24243;51.956;5.902;2024-01-16T03:00:59;18.10;53.40
38464;DHT22;24243;51.956;5.902;2024-01-16T03:03:43;18.10;53.40
38464;DHT22;24243;51.956;5.902;2024-01-16T03:06:28;18.10;53.40
38464;DHT22;24243;51.956;5.902;2024-01-16T03:09:13;18.10;53.40
38464;DHT22;24243;51.956;5.902;2024-01-16T03:11:58;18.10;53.40
38464;DHT22;24243;51.956;5.902;2024-01-16T03:14:42;18.10;53.40
38464;DHT22;24243;51.956;5.902;2024-01-16T03:17:26;18.10;53.40
38464;DHT22;24243;51.956;5.902;2024-01-16T03:20:10;18.00;53.30
38464;DHT22;24243;51.956;5.902;2024-01-16T03:22:55;18.10;53.40
38464;DHT22;24243;51.956;5.902;2024-01-16T03:25:39;18.10;53.40
38464;DHT22;24243;51.956;5.902;2024-01-16T03:28:23;18.00;53.30
38464;DHT22;24243;51.956;5.902;2024-01-16T03:31:07;18.00;53.30
38464;DHT22;24243;51.956;5.902;2024-01-16T03:33:52;18.00;53.30
38464;DHT22;24243;51.956;5.902;2024-01-16T03:36:36;18.00;53.30
38464;DHT22;24243;51.956;5.902;2024-01-16T03:39:20;18.00;53.30
38464;DHT22;24243;51.956;5.902;2024-01-16T03:42:06;18.00;53.30
38464;DHT22;24243;51.956;5.902;2024-01-16T03:44:50;18.00;53.30
38464;DHT22;24243;51.956;5.902;2024-01-16T03:47:35;18.00;53.30
38464;DHT22;24243;51.956;5.902;2024-01-16T03:50:19;18.00;53.30
38464;DHT22;24243;51.956;5.902;2024-01-16T03:53:04;18.00;53.30
38464;DHT22;24243;51.956;5.902;2024-01-16T03:55:48;18.00;53.30
38464;DHT22;24243;51.956;5.902;2024-01-16T03:58:33;18.00;53.30
38464;DHT22;24243;51.956;5.902;2024-01-16T04:01:17;18.00;53.30
38464;DHT22;24243;51.956;5.902;2024-01-16T04:04:02;18.00;53.30
38464;DHT22;24243;51.956;5.902;2024-01-16T04:06:46;18.00;53.30
38464;DHT22;24243;51.956;5.902;2024-01-16T04:09:30;18.00;53.30
38464;DHT22;24243;51.956;5.902;2024-01-16T04:12:15;18.00;53.30
38464;DHT22;24243;51.956;5.902;2024-01-16T04:14:59;17.90;53.20
38464;DHT22;24243;51.956;5.902;2024-01-16T04:17:43;17.90;53.20
38464;DHT22;24243;51.956;5.902;2024-01-16T04:20:27;18.00;53.30
38464;DHT22;24243;51.956;5.902;2024-01-16T04:23:12;18.00;53.30
38464;DHT22;24243;51.956;5.902;2024-01-16T04:25:56;17.90;53.30
38464;DHT22;24243;51.956;5.902;2024-01-16T04:28:40;17.90;53.20
38464;DHT22;24243;51.956;5.902;2024-01-16T04:31:25;18.00;53.30
38464;DHT22;24243;51.956;5.902;2024-01-16T04:34:09;17.90;53.20
38464;DHT22;24243;51.956;5.902;2024-01-16T04:36:54;17.90;53.20
38464;DHT22;24243;51.956;5.902;2024-01-16T04:39:38;17.90;53.20
38464;DHT22;24243;51.956;5.902;2024-01-16T04:42:22;17.90;53.20
38464;DHT22;24243;51.956;5.902;2024-01-16T04:45:06;17.90;53.20
38464;DHT22;24243;51.956;5.902;2024-01-16T04:47:50;17.90;53.20
38464;DHT22;24243;51.956;5.902;2024-01-16T04:50:35;17.90;53.20
38464;DHT22;24243;51.956;5.902;2024-01-16T04:53:19;17.90;53.20
38464;DHT22;24243;51.956;5.902;2024-01-16T04:56:04;17.90;53.20
38464;DHT22;24243;51.956;5.902;2024-01-16T04:58:48;17.90;53.20
38464;DHT22;24243;51.956;5.902;2024-01-16T05:01:32;17.90;53.20
38464;DHT22;24243;51.956;5.902;2024-01-16T05:04:16;17.90;53.20
38464;DHT22;24243;51.956;5.902;2024-01-16T05:07:01;17.80;53.20
38464;DHT22;24243;51.956;5.902;2024-01-16T05:09:45;17.80;53.20
38464;DHT22;24243;51.956;5.902;2024-01-16T05:12:29;17.80;53.20
38464;DHT22;24243;51.956;5.902;2024-01-16T05:15:13;17.90;53.20
38464;DHT22;24243;51.956;5.902;2024-01-16T05:17:59;17.80;53.20
38464;DHT22;24243;51.956;5.902;2024-01-16T05:20:43;17.80;53.20
38464;DHT22;24243;51.956;5.902;2024-01-16T05:23:27;17.80;53.20
38464;DHT22;24243;51.956;5.902;2024-01-16T05:26:12;17.80;53.20
38464;DHT22;24243;51.956;5.902;2024-01-16T05:28:56;17.80;53.20
38464;DHT22;24243;51.956;5.902;2024-01-16T05:31:40;17.80;53.20
38464;DHT22;24243;51.956;5.902;2024-01-16T05:34:25;17.80;53.20
38464;DHT22;24243;51.956;5.902;2024-01-16T05:37:10;17.80;53.20
38464;DHT22;24243;51.956;5.902;2024-01-16T05:39:54;17.80;53.20
38464;DHT22;24243;51.956;5.902;2024-01-16T05:42:38;17.80;53.20
38464;DHT22;24243;51.956;5.902;2024-01-16T05:45:22;17.80;53.20
38464;DHT22;24243;51.956;5.902;2024-01-16T05:48:07;17.80;53.20
38464;DHT22;24243;51.956;5.902;2024-01-16T05:50:52;17.80;53.20
38464;DHT22;24243;51.956;5.902;2024-01-16T05:53:37;17.80;53.20
38464;DHT22;24243;51.956;5.902;2024-01-16T05:56:21;17.70;53.10
38464;DHT22;24243;51.956;5.902;2024-01-16T05:59:05;17.80;53.20
38464;DHT22;24243;51.956;5.902;2024-01-16T06:01:51;17.70;53.10
38464;DHT22;24243;51.956;5.902;2024-01-16T06:04:35;17.80;53.20
38464;DHT22;24243;51.956;5.902;2024-01-16T06:07:20;17.70;53.10
38464;DHT22;24243;51.956;5.902;2024-01-16T06:10:04;17.70;53.10
38464;DHT22;24243;51.956;5.902;2024-01-16T06:12:49;17.70;53.10
38464;DHT22;24243;51.956;5.902;2024-01-16T06:15:33;17.70;53.10
38464;DHT22;24243;51.956;5.902;2024-01-16T06:18:17;17.70;53.20
38464;DHT22;24243;51.956;5.902;2024-01-16T06:21:02;17.70;53.10
38464;DHT22;24243;51.956;5.902;2024-01-16T06:23:46;17.70;53.10
38464;DHT22;24243;51.956;5.902;2024-01-16T06:26:31;17.70;53.10
38464;DHT22;24243;51.956;5.902;2024-01-16T06:29:15;17.70;53.10
38464;DHT22;24243;51.956;5.902;2024-01-16T06:31:59;17.70;53.10
38464;DHT22;24243;51.956;5.902;2024-01-16T06:34:43;17.70;53.10
38464;DHT22;24243;51.956;5.902;2024-01-16T06:37:28;17.70;53.10
38464;DHT22;24243;51.956;5.902;2024-01-16T06:40:12;17.70;53.10
38464;DHT22;24243;51.956;5.902;2024-01-16T06:42:56;17.70;53.10
38464;DHT22;24243;51.956;5.902;2024-01-16T06:45:40;17.70;53.10
38464;DHT22;24243;51.956;5.902;2024-01-16T06:48:26;17.70;53.10
38464;DHT22;24243;51.956;5.902;2024-01-16T06:51:10;17.70;53.10
38464;DHT22;24243;51.956;5.902;2024-01-16T06:53:57;17.70;53.10
38464;DHT22;24243;51.956;5.902;2024-01-16T06:56:42;17.60;53.00
38464;DHT22;24243;51.956;5.902;2024-01-16T06:59:26;17.60;53.00
38464;DHT22;24243;51.956;5.902;2024-01-16T07:02:10;17.60;53.00
38464;DHT22;24243;51.956;5.902;2024-01-16T07:04:54;17.60;53.10
38464;DHT22;24243;51.956;5.902;2024-01-16T07:07:38;17.60;53.10
38464;DHT22;24243;51.956;5.902;2024-01-16T07:10:23;17.60;53.10
38464;DHT22;24243;51.956;5.902;2024-01-16T07:13:08;17.60;53.10
38464;DHT22;24243;51.956;5.902;2024-01-16T07:15:52;17.60;53.10
38464;DHT22;24243;51.956;5.902;2024-01-16T07:18:37;17.60;53.10
38464;DHT22;24243;51.956;5.902;2024-01-16T07:21:21;17.60;53.10
38464;DHT22;24243;51.956;5.902;2024-01-16T07:24:06;17.60;53.10
38464;DHT22;24243;51.956;5.902;2024-01-16T07:26:50;17.60;53.00
38464;DHT22;24243;51.956;5.902;2024-01-16T07:29:34;17.60;53.10
38464;DHT22;24243;51.956;5.902;2024-01-16T07:32:18;17.60;53.10
38464;DHT22;24243;51.956;5.902;2024-01-16T07:35:03;17.60;53.00
38464;DHT22;24243;51.956;5.902;2024-01-16T07:37:48;17.60;53.00
38464;DHT22;24243;51.956;5.902;2024-01-16T07:40:32;17.50;53.00
38464;DHT22;24243;51.956;5.902;2024-01-16T07:43:16;17.60;53.00
38464;DHT22;24243;51.956;5.902;2024-01-16T07:46:01;17.50;53.00
38464;DHT22;24243;51.956;5.902;2024-01-16T07:48:45;17.50;53.00
38464;DHT22;24243;51.956;5.902;2024-01-16T07:51:29;17.50;53.00
38464;DHT22;24243;51.956;5.902;2024-01-16T07:54:14;17.50;53.00
38464;DHT22;24243;51.956;5.902;2024-01-16T07:56:58;17.50;53.00
38464;DHT22;24243;51.956;5.902;2024-01-16T07:59:43;17.50;53.00
38464;DHT22;24243;51.956;5.902;2024-01-16T08:02:31;17.50;53.00
38464;DHT22;24243;51.956;5.902;2024-01-16T08:05:16;17.50;53.00
38464;DHT22;24243;51.956;5.902;2024-01-16T08:08:00;17.50;53.00
38464;DHT22;24243;51.956;5.902;2024-01-16T08:10:44;17.50;53.00
38464;DHT22;24243;51.956;5.902;2024-01-16T08:13:29;17.50;53.00
38464;DHT22;24243;51.956;5.902;2024-01-16T08:16:13;17.50;53.00
38464;DHT22;24243;51.956;5.902;2024-01-16T08:18:57;17.50;53.00
38464;DHT22;24243;51.956;5.902;2024-01-16T08:21:42;17.50;53.60
38464;DHT22;24243;51.956;5.902;2024-01-16T08:24:26;17.50;53.00
38464;DHT22;24243;51.956;5.902;2024-01-16T08:27:10;17.50;53.00
38464;DHT22;24243;51.956;5.902;2024-01-16T08:29:55;17.50;53.00
38464;DHT22;24243;51.956;5.902;2024-01-16T08:32:39;17.50;53.00
38464;DHT22;24243;51.956;5.902;2024-01-16T08:35:23;17.50;52.90
38464;DHT22;24243;51.956;5.902;2024-01-16T08:38:07;17.50;53.00
38464;DHT22;24243;51.956;5.902;2024-01-16T08:40:51;17.50;53.00
38464;DHT22;24243;51.956;5.902;2024-01-16T08:43:36;17.50;53.00
38464;DHT22;24243;51.956;5.902;2024-01-16T08:46:21;17.50;52.90
38464;DHT22;24243;51.956;5.902;2024-01-16T08:49:05;17.40;52.90
38464;DHT22;24243;51.956;5.902;2024-01-16T08:51:49;17.40;52.90
38464;DHT22;24243;51.956;5.902;2024-01-16T08:54:33;17.50;52.90
38464;DHT22;24243;51.956;5.902;2024-01-16T08:57:17;17.50;52.90
38464;DHT22;24243;51.956;5.902;2024-01-16T09:00:02;17.40;52.90
38464;DHT22;24243;51.956;5.902;2024-01-16T09:02:47;17.40;52.90
38464;DHT22;24243;51.956;5.902;2024-01-16T09:05:32;17.40;52.90
38464;DHT22;24243;51.956;5.902;2024-01-16T09:08:19;17.40;52.90
38464;DHT22;24243;51.956;5.902;2024-01-16T09:11:03;17.40;52.90
38464;DHT22;24243;51.956;5.902;2024-01-16T09:13:47;17.40;52.90
38464;DHT22;24243;51.956;5.902;2024-01-16T09:16:32;17.40;52.90
38464;DHT22;24243;51.956;5.902;2024-01-16T09:19:16;17.40;52.90
38464;DHT22;24243;51.956;5.902;2024-01-16T09:22:00;17.40;52.90
38464;DHT22;24243;51.956;5.902;2024-01-16T09:24:44;17.40;52.90
38464;DHT22;24243;51.956;5.902;2024-01-16T09:27:28;17.40;53.50
38464;DHT22;24243;51.956;5.902;2024-01-16T09:30:13;17.40;52.90
38464;DHT22;24243;51.956;5.902;2024-01-16T09:32:57;17.40;52.90
38464;DHT22;24243;51.956;5.902;2024-01-16T09:35:41;17.40;52.90
38464;DHT22;24243;51.956;5.902;2024-01-16T09:38:25;17.40;52.90
38464;DHT22;24243;51.956;5.902;2024-01-16T09:41:10;17.50;52.90
38464;DHT22;24243;51.956;5.902;2024-01-16T09:43:54;17.50;52.90
38464;DHT22;24243;51.956;5.902;2024-01-16T09:46:39;17.50;52.90
38464;DHT22;24243;51.956;5.902;2024-01-16T09:49:24;17.50;52.90
38464;DHT22;24243;51.956;5.902;2024-01-16T09:52:09;17.50;52.90
38464;DHT22;24243;51.956;5.902;2024-01-16T09:54:53;17.50;52.90
38464;DHT22;24243;51.956;5.902;2024-01-16T09:57:39;17.50;52.90
38464;DHT22;24243;51.956;5.902;2024-01-16T10:00:25;17.50;52.90
38464;DHT22;24243;51.956;5.902;2024-01-16T10:03:12;17.50;52.90
38464;DHT22;24243;51.956;5.902;2024-01-16T10:05:58;17.50;52.90
38464;DHT22;24243;51.956;5.902;2024-01-16T10:08:43;17.50;52.80
38464;DHT22;24243;51.956;5.902;2024-01-16T10:11:28;17.50;52.90
38464;DHT22;24243;51.956;5.902;2024-01-16T10:14:13;17.50;53.50
38464;DHT22;24243;51.956;5.902;2024-01-16T10:17:01;17.50;52.90
38464;DHT22;24243;51.956;5.902;2024-01-16T10:19:58;17.50;52.90
38464;DHT22;24243;51.956;5.902;2024-01-16T10:22:52;17.50;52.90
38464;DHT22;24243;51.956;5.902;2024-01-16T10:25:37;17.50;52.90
38464;DHT22;24243;51.956;5.902;2024-01-16T10:28:21;17.60;52.90
38464;DHT22;24243;51.956;5.902;2024-01-16T10:31:06;17.50;52.90
38464;DHT22;24243;51.956;5.902;2024-01-16T10:33:50;17.60;52.90
38464;DHT22;24243;51.956;5.902;2024-01-16T10:36:35;17.60;52.90
38464;DHT22;24243;51.956;5.902;2024-01-16T10:39:19;17.60;52.90
38464;DHT22;24243;51.956;5.902;2024-01-16T10:42:04;17.60;53.00
38464;DHT22;24243;51.956;5.902;2024-01-16T10:44:54;17.60;53.00
38464;DHT22;24243;51.956;5.902;2024-01-16T10:47:42;17.60;52.90
38464;DHT22;24243;51.956;5.902;2024-01-16T10:50:26;17.60;52.90
38464;DHT22;24243;51.956;5.902;2024-01-16T10:53:11;17.60;53.00
38464;DHT22;24243;51.956;5.902;2024-01-16T10:55:59;17.60;53.00
38464;DHT22;24243;51.956;5.902;2024-01-16T10:58:44;17.60;53.00
38464;DHT22;24243;51.956;5.902;2024-01-16T11:01:28;17.70;53.00
38464;DHT22;24243;51.956;5.902;2024-01-16T11:04:13;17.60;53.00
38464;DHT22;24243;51.956;5.902;2024-01-16T11:06:58;17.70;53.00
38464;DHT22;24243;51.956;5.902;2024-01-16T11:09:42;17.70;53.00
38464;DHT22;24243;51.956;5.902;2024-01-16T11:12:27;17.70;53.00
38464;DHT22;24243;51.956;5.902;2024-01-16T11:15:13;17.80;53.10
38464;DHT22;24243;51.956;5.902;2024-01-16T11:18:01;17.80;53.10
38464;DHT22;24243;51.956;5.902;2024-01-16T11:20:46;17.80;53.10
38464;DHT22;24243;51.956;5.902;2024-01-16T11:23:30;17.80;53.10
38464;DHT22;24243;51.956;5.902;2024-01-16T11:26:30;17.80;53.10
38464;DHT22;24243;51.956;5.902;2024-01-16T11:32:11;17.90;53.10
38464;DHT22;24243;51.956;5.902;2024-01-16T11:35:16;17.90;53.10
38464;DHT22;24243;51.956;5.902;2024-01-16T11:38:15;17.90;53.10
38464;DHT22;24243;51.956;5.902;2024-01-16T11:41:05;18.00;53.20
38464;DHT22;24243;51.956;5.902;2024-01-16T11:43:49;18.00;53.20
38464;DHT22;24243;51.956;5.902;2024-01-16T11:49:37;18.10;53.30
38464;DHT22;24243;51.956;5.902;2024-01-16T11:52:39;18.10;53.30
38464;DHT22;24243;51.956;5.902;2024-01-16T11:55:25;18.10;53.30
38464;DHT22;24243;51.956;5.902;2024-01-16T12:01:10;18.20;53.40
38464;DHT22;24243;51.956;5.902;2024-01-16T12:04:05;18.20;53.40
38464;DHT22;24243;51.956;5.902;2024-01-16T12:06:59;18.20;53.40
38464;DHT22;24243;51.956;5.902;2024-01-16T12:09:43;18.20;53.40
38464;DHT22;24243;51.956;5.902;2024-01-16T12:12:27;18.30;53.50
38464;DHT22;24243;51.956;5.902;2024-01-16T12:15:18;18.30;53.40
38464;DHT22;24243;51.956;5.902;2024-01-16T12:18:03;18.30;53.50
38464;DHT22;24243;51.956;5.902;2024-01-16T12:20:48;18.30;53.50
38464;DHT22;24243;51.956;5.902;2024-01-16T12:23:32;18.40;53.50
38464;DHT22;24243;51.956;5.902;2024-01-16T12:26:24;18.40;53.50
38464;DHT22;24243;51.956;5.902;2024-01-16T12:29:09;18.40;53.50
38464;DHT22;24243;51.956;5.902;2024-01-16T12:32:04;18.50;53.60
38464;DHT22;24243;51.956;5.902;2024-01-16T12:34:49;18.50;53.60
38464;DHT22;24243;51.956;5.902;2024-01-16T12:37:33;18.50;53.60
38464;DHT22;24243;51.956;5.902;2024-01-16T12:40:17;18.50;53.60
38464;DHT22;24243;51.956;5.902;2024-01-16T12:43:05;18.50;53.60
38464;DHT22;24243;51.956;5.902;2024-01-16T12:45:56;18.60;53.60
38464;DHT22;24243;51.956;5.902;2024-01-16T12:48:40;18.60;53.60
38464;DHT22;24243;51.956;5.902;2024-01-16T12:51:25;18.60;53.60
38464;DHT22;24243;51.956;5.902;2024-01-16T12:54:13;18.60;53.60
38464;DHT22;24243;51.956;5.902;2024-01-16T12:56:58;18.60;53.60
38464;DHT22;24243;51.956;5.902;2024-01-16T12:59:42;18.60;53.60
38464;DHT22;24243;51.956;5.902;2024-01-16T13:02:26;18.60;53.60
38464;DHT22;24243;51.956;5.902;2024-01-16T13:05:10;18.60;53.60
38464;DHT22;24243;51.956;5.902;2024-01-16T13:08:00;18.60;53.60
38464;DHT22;24243;51.956;5.902;2024-01-16T13:10:47;18.60;53.60
38464;DHT22;24243;51.956;5.902;2024-01-16T13:13:45;18.60;53.60
38464;DHT22;24243;51.956;5.902;2024-01-16T13:16:29;18.70;53.70
38464;DHT22;24243;51.956;5.902;2024-01-16T13:19:17;18.70;53.70
38464;DHT22;24243;51.956;5.902;2024-01-16T13:22:01;18.70;53.70
38464;DHT22;24243;51.956;5.902;2024-01-16T13:24:45;18.70;53.70
38464;DHT22;24243;51.956;5.902;2024-01-16T13:27:29;18.70;53.70
38464;DHT22;24243;51.956;5.902;2024-01-16T13:30:14;18.70;53.70
38464;DHT22;24243;51.956;5.902;2024-01-16T13:32:58;18.70;53.70
38464;DHT22;24243;51.956;5.902;2024-01-16T13:35:46;18.70;53.70
38464;DHT22;24243;51.956;5.902;2024-01-16T13:38:30;18.60;53.60
38464;DHT22;24243;51.956;5.902;2024-01-16T13:41:15;18.60;53.60
38464;DHT22;24243;51.956;5.902;2024-01-16T13:43:59;18.60;53.60
38464;DHT22;24243;51.956;5.902;2024-01-16T13:46:43;18.60;53.60
38464;DHT22;24243;51.956;5.902;2024-01-16T13:49:27;18.60;53.60
38464;DHT22;24243;51.956;5.902;2024-01-16T13:52:12;18.60;53.60
38464;DHT22;24243;51.956;5.902;2024-01-16T13:54:56;18.60;53.60
38464;DHT22;24243;51.956;5.902;2024-01-16T13:57:41;18.60;53.60
38464;DHT22;24243;51.956;5.902;2024-01-16T14:00:25;18.60;53.60
38464;DHT22;24243;51.956;5.902;2024-01-16T14:03:10;18.60;53.60
38464;DHT22;24243;51.956;5.902;2024-01-16T14:05:54;18.60;53.50
38464;DHT22;24243;51.956;5.902;2024-01-16T14:08:39;18.60;53.60
38464;DHT22;24243;51.956;5.902;2024-01-16T14:11:23;18.60;53.50
38464;DHT22;24243;51.956;5.902;2024-01-16T14:14:08;18.60;53.60
38464;DHT22;24243;51.956;5.902;2024-01-16T14:16:52;18.60;53.60
38464;DHT22;24243;51.956;5.902;2024-01-16T14:19:38;18.60;53.60
38464;DHT22;24243;51.956;5.902;2024-01-16T14:22:22;18.60;53.60
38464;DHT22;24243;51.956;5.902;2024-01-16T14:25:10;18.50;53.60
38464;DHT22;24243;51.956;5.902;2024-01-16T14:27:58;18.50;53.60
38464;DHT22;24243;51.956;5.902;2024-01-16T14:30:43;18.50;53.70
38464;DHT22;24243;51.956;5.902;2024-01-16T14:33:29;18.50;53.70
38464;DHT22;24243;51.956;5.902;2024-01-16T14:36:13;18.50;53.70
38464;DHT22;24243;51.956;5.902;2024-01-16T14:38:57;18.50;53.70
38464;DHT22;24243;51.956;5.902;2024-01-16T14:41:41;18.50;53.70
38464;DHT22;24243;51.956;5.902;2024-01-16T14:44:26;18.60;53.80
38464;DHT22;24243;51.956;5.902;2024-01-16T14:47:10;18.60;53.80
38464;DHT22;24243;51.956;5.902;2024-01-16T14:49:54;18.60;53.80
38464;DHT22;24243;51.956;5.902;2024-01-16T14:52:40;18.60;53.90
38464;DHT22;24243;51.956;5.902;2024-01-16T14:55:24;18.60;53.90
38464;DHT22;24243;51.956;5.902;2024-01-16T14:58:10;18.60;53.90
38464;DHT22;24243;51.956;5.902;2024-01-16T15:00:55;18.60;53.90
38464;DHT22;24243;51.956;5.902;2024-01-16T15:03:40;18.70;54.00
38464;DHT22;24243;51.956;5.902;2024-01-16T15:06:24;18.70;54.00
38464;DHT22;24243;51.956;5.902;2024-01-16T15:09:09;18.70;54.00
38464;DHT22;24243;51.956;5.902;2024-01-16T15:11:56;18.70;54.00
38464;DHT22;24243;51.956;5.902;2024-01-16T15:14:40;18.70;54.00
38464;DHT22;24243;51.956;5.902;2024-01-16T15:17:24;18.70;54.00
38464;DHT22;24243;51.956;5.902;2024-01-16T15:20:09;18.70;54.00
38464;DHT22;24243;51.956;5.902;2024-01-16T15:22:53;18.70;54.00
38464;DHT22;24243;51.956;5.902;2024-01-16T15:25:38;18.70;54.00
38464;DHT22;24243;51.956;5.902;2024-01-16T15:28:22;18.70;54.00
38464;DHT22;24243;51.956;5.902;2024-01-16T15:31:07;18.70;54.00
38464;DHT22;24243;51.956;5.902;2024-01-16T15:33:52;18.80;54.00
38464;DHT22;24243;51.956;5.902;2024-01-16T15:36:37;18.70;54.00
38464;DHT22;24243;51.956;5.902;2024-01-16T15:39:21;18.80;54.00
38464;DHT22;24243;51.956;5.902;2024-01-16T15:42:05;18.80;54.00
38464;DHT22;24243;51.956;5.902;2024-01-16T15:44:50;18.80;54.00
38464;DHT22;24243;51.956;5.902;2024-01-16T15:47:35;18.80;54.00
38464;DHT22;24243;51.956;5.902;2024-01-16T15:50:19;18.80;54.00
38464;DHT22;24243;51.956;5.902;2024-01-16T15:53:04;18.80;54.00
38464;DHT22;24243;51.956;5.902;2024-01-16T15:55:49;18.80;54.00
38464;DHT22;24243;51.956;5.902;2024-01-16T15:58:33;18.80;54.00
38464;DHT22;24243;51.956;5.902;2024-01-16T16:01:18;18.80;54.00
38464;DHT22;24243;51.956;5.902;2024-01-16T16:04:02;18.80;54.00
38464;DHT22;24243;51.956;5.902;2024-01-16T16:06:47;18.80;54.00
38464;DHT22;24243;51.956;5.902;2024-01-16T16:09:31;18.80;54.00
38464;DHT22;24243;51.956;5.902;2024-01-16T16:12:15;18.80;54.00
38464;DHT22;24243;51.956;5.902;2024-01-16T16:15:00;18.80;54.00
38464;DHT22;24243;51.956;5.902;2024-01-16T16:17:44;18.80;54.00
38464;DHT22;24243;51.956;5.902;2024-01-16T16:20:28;18.80;54.00
38464;DHT22;24243;51.956;5.902;2024-01-16T16:23:12;18.80;54.00
38464;DHT22;24243;51.956;5.902;2024-01-16T16:25:57;18.80;54.10
38464;DHT22;24243;51.956;5.902;2024-01-16T16:28:41;18.90;54.10
38464;DHT22;24243;51.956;5.902;2024-01-16T16:31:26;18.90;54.10
38464;DHT22;24243;51.956;5.902;2024-01-16T16:34:11;18.90;54.10
38464;DHT22;24243;51.956;5.902;2024-01-16T16:36:56;18.90;54.10
38464;DHT22;24243;51.956;5.902;2024-01-16T16:39:40;18.90;54.10
38464;DHT22;24243;51.956;5.902;2024-01-16T16:42:25;18.90;54.10
38464;DHT22;24243;51.956;5.902;2024-01-16T16:45:11;18.90;54.10
38464;DHT22;24243;51.956;5.902;2024-01-16T16:47:56;18.90;54.10
38464;DHT22;24243;51.956;5.902;2024-01-16T16:50:40;18.90;54.10
38464;DHT22;24243;51.956;5.902;2024-01-16T16:53:24;18.90;54.10
38464;DHT22;24243;51.956;5.902;2024-01-16T16:56:08;18.90;54.10
38464;DHT22;24243;51.956;5.902;2024-01-16T16:58:55;18.90;54.10
38464;DHT22;24243;51.956;5.902;2024-01-16T17:01:39;18.90;54.10
38464;DHT22;24243;51.956;5.902;2024-01-16T17:04:24;18.90;54.10
38464;DHT22;24243;51.956;5.902;2024-01-16T17:07:08;18.90;54.10
38464;DHT22;24243;51.956;5.902;2024-01-16T17:09:53;18.90;54.10
38464;DHT22;24243;51.956;5.902;2024-01-16T17:12:37;18.90;54.10
38464;DHT22;24243;51.956;5.902;2024-01-16T17:15:21;18.90;54.10
38464;DHT22;24243;51.956;5.902;2024-01-16T17:18:05;18.90;54.10
38464;DHT22;24243;51.956;5.902;2024-01-16T17:20:51;18.90;54.10
38464;DHT22;24243;51.956;5.902;2024-01-16T17:23:36;18.90;54.10
38464;DHT22;24243;51.956;5.902;2024-01-16T17:26:20;18.90;54.10
38464;DHT22;24243;51.956;5.902;2024-01-16T17:29:04;19.00;54.20